sensor_id;sensor_type;location;lat;lon;timestamp;P1;durP1;ratioP1;P2;durP2;ratioP2
27999;SDS011;15328;50.860;10.562;2023-04-08T00:02:15;9.93;;;6.53;;
27999;SDS011;15328;50.860;10.562;2023-04-08T00:07:16;8.98;;;6.35;;
27999;SDS011;15328;50.860;10.562;2023-04-08T00:12:16;10.40;;;6.13;;
27999;SDS011;15328;50.860;10.562;2023-04-08T00:17:16;10.47;;;6.83;;
27999;SDS011;15328;50.860;10.562;2023-04-08T00:22:17;7.38;;;5.25;;
27999;SDS011;15328;50.860;10.562;2023-04-08T00:27:17;9.43;;;6.32;;
27999;SDS011;15328;50.860;10.562;2023-04-08T00:32:17;12.10;;;6.77;;
27999;SDS011;15328;50.860;10.562;2023-04-08T00:37:18;9.45;;;5.72;;
27999;SDS011;15328;50.860;10.562;2023-04-08T00:42:18;7.60;;;5.43;;
27999;SDS011;15328;50.860;10.562;2023-04-08T00:47:21;9.45;;;5.90;;
27999;SDS011;15328;50.860;10.562;2023-04-08T00:52:21;7.63;;;5.45;;
27999;SDS011;15328;50.860;10.562;2023-04-08T00:57:22;8.20;;;5.25;;
27999;SDS011;15328;50.860;10.562;2023-04-08T01:02:26;8.55;;;5.60;;
27999;SDS011;15328;50.860;10.562;2023-04-08T01:07:33;7.90;;;5.03;;
27999;SDS011;15328;50.860;10.562;2023-04-08T01:12:36;7.60;;;4.60;;
27999;SDS011;15328;50.860;10.562;2023-04-08T01:17:41;7.80;;;4.82;;
27999;SDS011;15328;50.860;10.562;2023-04-08T01:27:49;7.95;;;4.85;;
27999;SDS011;15328;50.860;10.562;2023-04-08T01:32:53;9.18;;;5.03;;
27999;SDS011;15328;50.860;10.562;2023-04-08T01:37:54;7.18;;;4.50;;
27999;SDS011;15328;50.860;10.562;2023-04-08T01:42:56;8.48;;;5.32;;
27999;SDS011;15328;50.860;10.562;2023-04-08T01:47:59;8.85;;;5.45;;
27999;SDS011;15328;50.860;10.562;2023-04-08T01:53:00;8.40;;;5.10;;
27999;SDS011;15328;50.860;10.562;2023-04-08T01:58:04;8.45;;;5.70;;
27999;SDS011;15328;50.860;10.562;2023-04-08T02:03:06;8.25;;;5.22;;
27999;SDS011;15328;50.860;10.562;2023-04-08T02:08:11;6.35;;;4.72;;
27999;SDS011;15328;50.860;10.562;2023-04-08T02:13:11;7.55;;;4.72;;
27999;SDS011;15328;50.860;10.562;2023-04-08T02:18:12;8.65;;;5.22;;
27999;SDS011;15328;50.860;10.562;2023-04-08T02:23:19;6.97;;;4.43;;
27999;SDS011;15328;50.860;10.562;2023-04-08T02:28:23;7.20;;;4.57;;
27999;SDS011;15328;50.860;10.562;2023-04-08T02:33:25;8.25;;;5.35;;
27999;SDS011;15328;50.860;10.562;2023-04-08T02:38:27;8.15;;;5.55;;
27999;SDS011;15328;50.860;10.562;2023-04-08T02:43:29;11.32;;;6.10;;
27999;SDS011;15328;50.860;10.562;2023-04-08T02:48:32;7.97;;;5.25;;
27999;SDS011;15328;50.860;10.562;2023-04-08T02:53:33;8.18;;;4.72;;
27999;SDS011;15328;50.860;10.562;2023-04-08T02:58:33;7.40;;;4.83;;
27999;SDS011;15328;50.860;10.562;2023-04-08T03:03:33;6.95;;;4.75;;
27999;SDS011;15328;50.860;10.562;2023-04-08T03:08:34;7.22;;;5.00;;
27999;SDS011;15328;50.860;10.562;2023-04-08T03:13:34;7.00;;;4.90;;
27999;SDS011;15328;50.860;10.562;2023-04-08T03:18:35;8.50;;;5.20;;
27999;SDS011;15328;50.860;10.562;2023-04-08T03:23:35;7.57;;;4.70;;
27999;SDS011;15328;50.860;10.562;2023-04-08T03:28:35;6.27;;;4.20;;
27999;SDS011;15328;50.860;10.562;2023-04-08T03:33:36;6.38;;;4.13;;
27999;SDS011;15328;50.860;10.562;2023-04-08T03:38:36;8.73;;;4.67;;
27999;SDS011;15328;50.860;10.562;2023-04-08T03:43:37;6.57;;;4.55;;
27999;SDS011;15328;50.860;10.562;2023-04-08T03:48:37;6.47;;;4.67;;
27999;SDS011;15328;50.860;10.562;2023-04-08T03:53:37;7.20;;;4.20;;
27999;SDS011;15328;50.860;10.562;2023-04-08T03:58:38;7.17;;;4.97;;
27999;SDS011;15328;50.860;10.562;2023-04-08T04:03:38;8.10;;;4.93;;
27999;SDS011;15328;50.860;10.562;2023-04-08T04:08:38;7.43;;;5.40;;
27999;SDS011;15328;50.860;10.562;2023-04-08T04:13:39;8.03;;;4.47;;
27999;SDS011;15328;50.860;10.562;2023-04-08T04:18:39;6.17;;;4.70;;
27999;SDS011;15328;50.860;10.562;2023-04-08T04:23:40;7.75;;;4.80;;
27999;SDS011;15328;50.860;10.562;2023-04-08T04:28:40;7.95;;;5.05;;
27999;SDS011;15328;50.860;10.562;2023-04-08T04:33:40;6.90;;;4.83;;
27999;SDS011;15328;50.860;10.562;2023-04-08T04:38:41;9.00;;;5.20;;
27999;SDS011;15328;50.860;10.562;2023-04-08T04:43:44;7.45;;;4.70;;
27999;SDS011;15328;50.860;10.562;2023-04-08T04:48:44;7.95;;;4.60;;
27999;SDS011;15328;50.860;10.562;2023-04-08T04:53:45;7.28;;;4.57;;
27999;SDS011;15328;50.860;10.562;2023-04-08T04:58:45;8.07;;;5.10;;
27999;SDS011;15328;50.860;10.562;2023-04-08T05:03:45;7.53;;;5.10;;
27999;SDS011;15328;50.860;10.562;2023-04-08T05:08:46;7.87;;;5.23;;
27999;SDS011;15328;50.860;10.562;2023-04-08T05:13:46;7.27;;;4.80;;
27999;SDS011;15328;50.860;10.562;2023-04-08T05:18:47;6.93;;;5.45;;
27999;SDS011;15328;50.860;10.562;2023-04-08T05:23:47;7.77;;;4.93;;
27999;SDS011;15328;50.860;10.562;2023-04-08T05:28:48;7.60;;;4.85;;
27999;SDS011;15328;50.860;10.562;2023-04-08T05:33:49;6.90;;;4.88;;
27999;SDS011;15328;50.860;10.562;2023-04-08T05:38:49;7.47;;;5.00;;
27999;SDS011;15328;50.860;10.562;2023-04-08T05:43:50;8.68;;;5.72;;
27999;SDS011;15328;50.860;10.562;2023-04-08T05:48:50;8.23;;;5.30;;
27999;SDS011;15328;50.860;10.562;2023-04-08T05:53:50;7.70;;;5.27;;
27999;SDS011;15328;50.860;10.562;2023-04-08T05:58:51;7.80;;;5.38;;
27999;SDS011;15328;50.860;10.562;2023-04-08T06:03:51;8.13;;;5.70;;
27999;SDS011;15328;50.860;10.562;2023-04-08T06:08:52;7.63;;;5.47;;
27999;SDS011;15328;50.860;10.562;2023-04-08T06:13:53;8.35;;;5.43;;
27999;SDS011;15328;50.860;10.562;2023-04-08T06:18:53;8.17;;;5.60;;
27999;SDS011;15328;50.860;10.562;2023-04-08T06:23:53;9.37;;;6.00;;
27999;SDS011;15328;50.860;10.562;2023-04-08T06:28:54;9.45;;;5.72;;
27999;SDS011;15328;50.860;10.562;2023-04-08T06:33:54;8.95;;;6.28;;
27999;SDS011;15328;50.860;10.562;2023-04-08T06:38:55;10.90;;;6.72;;
27999;SDS011;15328;50.860;10.562;2023-04-08T06:43:58;9.80;;;6.13;;
27999;SDS011;15328;50.860;10.562;2023-04-08T06:48:58;10.65;;;6.40;;
27999;SDS011;15328;50.860;10.562;2023-04-08T06:53:59;11.10;;;6.63;;
27999;SDS011;15328;50.860;10.562;2023-04-08T06:58:59;15.03;;;8.83;;
27999;SDS011;15328;50.860;10.562;2023-04-08T07:04:00;14.00;;;8.25;;
27999;SDS011;15328;50.860;10.562;2023-04-08T07:09:01;12.23;;;7.13;;
27999;SDS011;15328;50.860;10.562;2023-04-08T07:14:01;16.17;;;8.52;;
27999;SDS011;15328;50.860;10.562;2023-04-08T07:19:02;13.43;;;7.10;;
27999;SDS011;15328;50.860;10.562;2023-04-08T07:24:02;15.47;;;8.10;;
27999;SDS011;15328;50.860;10.562;2023-04-08T07:29:02;13.68;;;7.22;;
27999;SDS011;15328;50.860;10.562;2023-04-08T07:34:03;12.27;;;7.57;;
27999;SDS011;15328;50.860;10.562;2023-04-08T07:39:03;11.38;;;6.97;;
27999;SDS011;15328;50.860;10.562;2023-04-08T07:44:04;11.98;;;7.50;;
27999;SDS011;15328;50.860;10.562;2023-04-08T07:49:04;10.60;;;6.57;;
27999;SDS011;15328;50.860;10.562;2023-04-08T07:54:04;9.53;;;6.40;;
27999;SDS011;15328;50.860;10.562;2023-04-08T07:59:05;12.20;;;7.47;;
27999;SDS011;15328;50.860;10.562;2023-04-08T08:04:06;9.00;;;5.95;;
27999;SDS011;15328;50.860;10.562;2023-04-08T08:09:06;10.03;;;6.30;;
27999;SDS011;15328;50.860;10.562;2023-04-08T08:14:06;8.43;;;5.73;;
27999;SDS011;15328;50.860;10.562;2023-04-08T08:19:07;7.40;;;5.27;;
27999;SDS011;15328;50.860;10.562;2023-04-08T08:24:07;7.60;;;4.97;;
27999;SDS011;15328;50.860;10.562;2023-04-08T08:29:08;9.65;;;6.07;;
27999;SDS011;15328;50.860;10.562;2023-04-08T08:34:08;8.63;;;5.25;;
27999;SDS011;15328;50.860;10.562;2023-04-08T08:39:08;6.93;;;5.00;;
27999;SDS011;15328;50.860;10.562;2023-04-08T08:44:09;8.20;;;5.38;;
27999;SDS011;15328;50.860;10.562;2023-04-08T08:49:10;10.95;;;7.07;;
27999;SDS011;15328;50.860;10.562;2023-04-08T08:54:11;8.30;;;5.78;;
27999;SDS011;15328;50.860;10.562;2023-04-08T08:59:12;8.90;;;5.43;;
27999;SDS011;15328;50.860;10.562;2023-04-08T09:04:16;7.10;;;4.67;;
27999;SDS011;15328;50.860;10.562;2023-04-08T09:09:18;6.18;;;4.32;;
27999;SDS011;15328;50.860;10.562;2023-04-08T09:14:19;6.35;;;4.20;;
27999;SDS011;15328;50.860;10.562;2023-04-08T09:19:23;6.05;;;4.00;;
27999;SDS011;15328;50.860;10.562;2023-04-08T09:24:27;6.53;;;4.53;;
27999;SDS011;15328;50.860;10.562;2023-04-08T09:29:29;6.90;;;4.40;;
27999;SDS011;15328;50.860;10.562;2023-04-08T09:34:30;7.28;;;4.70;;
27999;SDS011;15328;50.860;10.562;2023-04-08T09:39:33;6.03;;;4.05;;
27999;SDS011;15328;50.860;10.562;2023-04-08T09:44:33;6.43;;;4.70;;
27999;SDS011;15328;50.860;10.562;2023-04-08T10:00:04;6.05;;;4.22;;
27999;SDS011;15328;50.860;10.562;2023-04-08T10:05:10;6.40;;;3.83;;
27999;SDS011;15328;50.860;10.562;2023-04-08T10:10:12;6.03;;;3.80;;
27999;SDS011;15328;50.860;10.562;2023-04-08T10:25:33;4.80;;;3.30;;
27999;SDS011;15328;50.860;10.562;2023-04-08T10:35:43;6.72;;;3.63;;
27999;SDS011;15328;50.860;10.562;2023-04-08T10:45:48;4.57;;;2.90;;
27999;SDS011;15328;50.860;10.562;2023-04-08T10:50:58;5.68;;;3.83;;
27999;SDS011;15328;50.860;10.562;2023-04-08T10:56:02;6.00;;;3.72;;
27999;SDS011;15328;50.860;10.562;2023-04-08T11:01:06;6.47;;;3.97;;
27999;SDS011;15328;50.860;10.562;2023-04-08T11:06:07;5.00;;;3.05;;
27999;SDS011;15328;50.860;10.562;2023-04-08T11:11:08;4.38;;;3.00;;
27999;SDS011;15328;50.860;10.562;2023-04-08T11:16:11;7.47;;;4.28;;
27999;SDS011;15328;50.860;10.562;2023-04-08T11:21:12;5.03;;;3.33;;
27999;SDS011;15328;50.860;10.562;2023-04-08T11:26:13;7.55;;;4.50;;
27999;SDS011;15328;50.860;10.562;2023-04-08T11:31:14;6.95;;;3.85;;
27999;SDS011;15328;50.860;10.562;2023-04-08T11:36:16;7.55;;;4.10;;
27999;SDS011;15328;50.860;10.562;2023-04-08T11:41:20;6.90;;;4.35;;
27999;SDS011;15328;50.860;10.562;2023-04-08T11:46:22;7.53;;;4.45;;
27999;SDS011;15328;50.860;10.562;2023-04-08T11:51:23;8.40;;;4.90;;
27999;SDS011;15328;50.860;10.562;2023-04-08T11:56:24;8.85;;;5.60;;
27999;SDS011;15328;50.860;10.562;2023-04-08T12:01:24;8.13;;;5.25;;
27999;SDS011;15328;50.860;10.562;2023-04-08T12:06:26;9.98;;;6.25;;
27999;SDS011;15328;50.860;10.562;2023-04-08T12:11:27;10.25;;;6.43;;
27999;SDS011;15328;50.860;10.562;2023-04-08T12:16:28;12.77;;;7.50;;
27999;SDS011;15328;50.860;10.562;2023-04-08T12:21:28;12.07;;;6.95;;
27999;SDS011;15328;50.860;10.562;2023-04-08T12:26:28;13.63;;;7.50;;
27999;SDS011;15328;50.860;10.562;2023-04-08T12:31:29;12.45;;;7.45;;
27999;SDS011;15328;50.860;10.562;2023-04-08T12:36:29;10.45;;;5.65;;
27999;SDS011;15328;50.860;10.562;2023-04-08T12:41:30;9.05;;;5.50;;
27999;SDS011;15328;50.860;10.562;2023-04-08T12:46:31;10.50;;;6.00;;
27999;SDS011;15328;50.860;10.562;2023-04-08T12:51:31;10.43;;;6.80;;
27999;SDS011;15328;50.860;10.562;2023-04-08T12:56:32;14.85;;;9.60;;
27999;SDS011;15328;50.860;10.562;2023-04-08T13:01:32;11.10;;;6.88;;
27999;SDS011;15328;50.860;10.562;2023-04-08T13:06:33;10.00;;;6.45;;
27999;SDS011;15328;50.860;10.562;2023-04-08T13:11:33;12.40;;;7.25;;
27999;SDS011;15328;50.860;10.562;2023-04-08T13:16:34;14.45;;;8.60;;
27999;SDS011;15328;50.860;10.562;2023-04-08T13:21:34;11.55;;;7.15;;
27999;SDS011;15328;50.860;10.562;2023-04-08T13:26:34;15.50;;;8.60;;
27999;SDS011;15328;50.860;10.562;2023-04-08T13:31:35;14.13;;;8.52;;
27999;SDS011;15328;50.860;10.562;2023-04-08T13:36:35;16.50;;;10.50;;
27999;SDS011;15328;50.860;10.562;2023-04-08T13:41:35;20.92;;;12.88;;
27999;SDS011;15328;50.860;10.562;2023-04-08T13:46:36;19.53;;;10.90;;
27999;SDS011;15328;50.860;10.562;2023-04-08T13:51:36;21.00;;;12.13;;
27999;SDS011;15328;50.860;10.562;2023-04-08T13:56:36;18.40;;;10.57;;
27999;SDS011;15328;50.860;10.562;2023-04-08T14:01:37;17.37;;;11.23;;
27999;SDS011;15328;50.860;10.562;2023-04-08T14:06:39;15.95;;;9.93;;
27999;SDS011;15328;50.860;10.562;2023-04-08T14:11:39;14.15;;;8.82;;
27999;SDS011;15328;50.860;10.562;2023-04-08T14:16:40;20.40;;;11.90;;
27999;SDS011;15328;50.860;10.562;2023-04-08T14:21:40;17.73;;;10.35;;
27999;SDS011;15328;50.860;10.562;2023-04-08T14:26:41;19.02;;;11.35;;
27999;SDS011;15328;50.860;10.562;2023-04-08T14:31:41;16.90;;;9.82;;
27999;SDS011;15328;50.860;10.562;2023-04-08T14:36:42;16.85;;;10.25;;
27999;SDS011;15328;50.860;10.562;2023-04-08T14:41:42;17.92;;;10.40;;
27999;SDS011;15328;50.860;10.562;2023-04-08T14:51:45;19.83;;;11.20;;
27999;SDS011;15328;50.860;10.562;2023-04-08T14:56:45;17.77;;;10.53;;
27999;SDS011;15328;50.860;10.562;2023-04-08T15:01:46;16.52;;;9.52;;
27999;SDS011;15328;50.860;10.562;2023-04-08T15:06:46;20.95;;;11.50;;
27999;SDS011;15328;50.860;10.562;2023-04-08T15:11:48;23.13;;;13.30;;
27999;SDS011;15328;50.860;10.562;2023-04-08T15:16:48;19.42;;;11.38;;
27999;SDS011;15328;50.860;10.562;2023-04-08T15:21:48;19.80;;;11.57;;
27999;SDS011;15328;50.860;10.562;2023-04-08T15:26:49;18.27;;;10.70;;
27999;SDS011;15328;50.860;10.562;2023-04-08T15:31:49;18.10;;;10.73;;
27999;SDS011;15328;50.860;10.562;2023-04-08T15:36:49;18.40;;;11.13;;
27999;SDS011;15328;50.860;10.562;2023-04-08T15:41:50;20.45;;;11.63;;
27999;SDS011;15328;50.860;10.562;2023-04-08T15:46:51;22.23;;;13.57;;
27999;SDS011;15328;50.860;10.562;2023-04-08T15:51:51;22.67;;;13.83;;
27999;SDS011;15328;50.860;10.562;2023-04-08T15:56:52;21.02;;;12.10;;
27999;SDS011;15328;50.860;10.562;2023-04-08T16:01:52;26.23;;;15.07;;
27999;SDS011;15328;50.860;10.562;2023-04-08T16:06:53;23.23;;;13.37;;
27999;SDS011;15328;50.860;10.562;2023-04-08T16:11:53;23.50;;;14.27;;
27999;SDS011;15328;50.860;10.562;2023-04-08T16:16:53;25.85;;;14.82;;
27999;SDS011;15328;50.860;10.562;2023-04-08T16:21:54;25.52;;;13.60;;
27999;SDS011;15328;50.860;10.562;2023-04-08T16:26:54;22.88;;;13.13;;
27999;SDS011;15328;50.860;10.562;2023-04-08T16:31:56;23.55;;;14.43;;
27999;SDS011;15328;50.860;10.562;2023-04-08T16:36:57;24.02;;;14.70;;
27999;SDS011;15328;50.860;10.562;2023-04-08T16:41:57;25.58;;;15.65;;
27999;SDS011;15328;50.860;10.562;2023-04-08T16:46:57;22.27;;;13.43;;
27999;SDS011;15328;50.860;10.562;2023-04-08T16:51:58;21.97;;;13.23;;
27999;SDS011;15328;50.860;10.562;2023-04-08T16:56:58;24.45;;;14.30;;
27999;SDS011;15328;50.860;10.562;2023-04-08T17:01:59;30.92;;;17.88;;
27999;SDS011;15328;50.860;10.562;2023-04-08T17:06:59;25.85;;;15.23;;
27999;SDS011;15328;50.860;10.562;2023-04-08T17:12:00;22.08;;;13.20;;
27999;SDS011;15328;50.860;10.562;2023-04-08T17:17:01;23.33;;;14.30;;
27999;SDS011;15328;50.860;10.562;2023-04-08T17:22:01;20.83;;;12.87;;
27999;SDS011;15328;50.860;10.562;2023-04-08T17:27:01;19.27;;;12.13;;
27999;SDS011;15328;50.860;10.562;2023-04-08T17:32:02;20.77;;;12.50;;
27999;SDS011;15328;50.860;10.562;2023-04-08T17:37:02;22.63;;;13.13;;
27999;SDS011;15328;50.860;10.562;2023-04-08T17:42:04;20.33;;;11.90;;
27999;SDS011;15328;50.860;10.562;2023-04-08T17:47:04;20.20;;;12.18;;
27999;SDS011;15328;50.860;10.562;2023-04-08T17:52:05;21.50;;;12.98;;
27999;SDS011;15328;50.860;10.562;2023-04-08T17:57:06;22.38;;;13.13;;
27999;SDS011;15328;50.860;10.562;2023-04-08T18:02:06;21.53;;;12.57;;
27999;SDS011;15328;50.860;10.562;2023-04-08T18:07:06;20.50;;;11.93;;
27999;SDS011;15328;50.860;10.562;2023-04-08T18:12:07;22.77;;;13.10;;
27999;SDS011;15328;50.860;10.562;2023-04-08T18:17:07;19.25;;;11.57;;
27999;SDS011;15328;50.860;10.562;2023-04-08T18:22:07;19.73;;;11.93;;
27999;SDS011;15328;50.860;10.562;2023-04-08T18:27:08;19.73;;;11.48;;
27999;SDS011;15328;50.860;10.562;2023-04-08T18:32:08;17.77;;;10.63;;
27999;SDS011;15328;50.860;10.562;2023-04-08T18:37:09;19.63;;;11.88;;
27999;SDS011;15328;50.860;10.562;2023-04-08T18:42:16;20.58;;;11.98;;
27999;SDS011;15328;50.860;10.562;2023-04-08T18:47:16;18.08;;;11.32;;
27999;SDS011;15328;50.860;10.562;2023-04-08T18:52:17;17.75;;;11.00;;
27999;SDS011;15328;50.860;10.562;2023-04-08T18:57:18;21.10;;;11.60;;
27999;SDS011;15328;50.860;10.562;2023-04-08T19:02:19;21.85;;;12.02;;
27999;SDS011;15328;50.860;10.562;2023-04-08T19:07:19;19.08;;;11.48;;
27999;SDS011;15328;50.860;10.562;2023-04-08T19:12:20;20.70;;;12.20;;
27999;SDS011;15328;50.860;10.562;2023-04-08T19:17:20;21.15;;;13.07;;
27999;SDS011;15328;50.860;10.562;2023-04-08T19:22:20;20.65;;;12.23;;
27999;SDS011;15328;50.860;10.562;2023-04-08T19:27:21;20.70;;;12.48;;
27999;SDS011;15328;50.860;10.562;2023-04-08T19:32:21;21.25;;;13.05;;
27999;SDS011;15328;50.860;10.562;2023-04-08T19:37:22;24.15;;;14.30;;
27999;SDS011;15328;50.860;10.562;2023-04-08T19:42:22;22.00;;;13.43;;
27999;SDS011;15328;50.860;10.562;2023-04-08T19:47:23;25.77;;;14.52;;
27999;SDS011;15328;50.860;10.562;2023-04-08T19:52:24;23.65;;;13.55;;
27999;SDS011;15328;50.860;10.562;2023-04-08T19:57:24;21.30;;;12.65;;
27999;SDS011;15328;50.860;10.562;2023-04-08T20:02:25;23.58;;;13.18;;
27999;SDS011;15328;50.860;10.562;2023-04-08T20:07:25;21.30;;;12.33;;
27999;SDS011;15328;50.860;10.562;2023-04-08T20:12:26;21.77;;;12.75;;
27999;SDS011;15328;50.860;10.562;2023-04-08T20:17:26;21.65;;;12.13;;
27999;SDS011;15328;50.860;10.562;2023-04-08T20:22:29;20.52;;;12.00;;
27999;SDS011;15328;50.860;10.562;2023-04-08T20:27:31;19.83;;;11.57;;
27999;SDS011;15328;50.860;10.562;2023-04-08T20:32:32;19.67;;;11.45;;
27999;SDS011;15328;50.860;10.562;2023-04-08T20:37:33;22.17;;;13.13;;
27999;SDS011;15328;50.860;10.562;2023-04-08T20:42:33;19.42;;;12.00;;
27999;SDS011;15328;50.860;10.562;2023-04-08T20:47:34;21.13;;;11.68;;
27999;SDS011;15328;50.860;10.562;2023-04-08T20:52:34;20.75;;;12.23;;
27999;SDS011;15328;50.860;10.562;2023-04-08T20:57:35;23.33;;;13.77;;
27999;SDS011;15328;50.860;10.562;2023-04-08T21:02:35;21.65;;;12.57;;
27999;SDS011;15328;50.860;10.562;2023-04-08T21:07:35;22.63;;;13.30;;
27999;SDS011;15328;50.860;10.562;2023-04-08T21:12:37;23.42;;;13.60;;
27999;SDS011;15328;50.860;10.562;2023-04-08T21:17:37;25.23;;;13.90;;
27999;SDS011;15328;50.860;10.562;2023-04-08T21:22:38;21.73;;;13.70;;
27999;SDS011;15328;50.860;10.562;2023-04-08T21:27:38;24.08;;;14.38;;
27999;SDS011;15328;50.860;10.562;2023-04-08T21:32:40;25.13;;;13.85;;
27999;SDS011;15328;50.860;10.562;2023-04-08T21:37:40;22.87;;;13.47;;
27999;SDS011;15328;50.860;10.562;2023-04-08T21:42:41;26.45;;;15.18;;
27999;SDS011;15328;50.860;10.562;2023-04-08T21:47:41;27.20;;;14.48;;
27999;SDS011;15328;50.860;10.562;2023-04-08T21:52:41;27.00;;;15.80;;
27999;SDS011;15328;50.860;10.562;2023-04-08T21:57:42;30.20;;;17.42;;
27999;SDS011;15328;50.860;10.562;2023-04-08T22:02:42;28.65;;;16.35;;
27999;SDS011;15328;50.860;10.562;2023-04-08T22:07:42;33.30;;;18.07;;
27999;SDS011;15328;50.860;10.562;2023-04-08T22:12:43;32.63;;;17.88;;
27999;SDS011;15328;50.860;10.562;2023-04-08T22:17:43;29.80;;;16.80;;
27999;SDS011;15328;50.860;10.562;2023-04-08T22:22:44;33.10;;;18.48;;
27999;SDS011;15328;50.860;10.562;2023-04-08T22:27:44;33.53;;;18.17;;
27999;SDS011;15328;50.860;10.562;2023-04-08T22:32:45;31.05;;;16.90;;
27999;SDS011;15328;50.860;10.562;2023-04-08T22:37:45;37.40;;;19.37;;
27999;SDS011;15328;50.860;10.562;2023-04-08T22:42:45;30.90;;;16.50;;
27999;SDS011;15328;50.860;10.562;2023-04-08T22:47:46;33.37;;;18.27;;
27999;SDS011;15328;50.860;10.562;2023-04-08T22:52:46;34.27;;;18.97;;
27999;SDS011;15328;50.860;10.562;2023-04-08T22:57:46;29.90;;;16.80;;
27999;SDS011;15328;50.860;10.562;2023-04-08T23:02:47;32.25;;;16.77;;
27999;SDS011;15328;50.860;10.562;2023-04-08T23:07:47;31.97;;;17.40;;
27999;SDS011;15328;50.860;10.562;2023-04-08T23:12:47;35.20;;;20.43;;
27999;SDS011;15328;50.860;10.562;2023-04-08T23:17:48;34.83;;;19.30;;
27999;SDS011;15328;50.860;10.562;2023-04-08T23:22:48;34.22;;;19.00;;
27999;SDS011;15328;50.860;10.562;2023-04-08T23:27:48;35.27;;;18.47;;
27999;SDS011;15328;50.860;10.562;2023-04-08T23:32:49;31.30;;;17.75;;
27999;SDS011;15328;50.860;10.562;2023-04-08T23:37:49;32.33;;;18.10;;
27999;SDS011;15328;50.860;10.562;2023-04-08T23:42:50;33.10;;;17.13;;
27999;SDS011;15328;50.860;10.562;2023-04-08T23:47:50;29.80;;;17.30;;
27999;SDS011;15328;50.860;10.562;2023-04-08T23:52:50;28.90;;;16.30;;
27999;SDS011;15328;50.860;10.562;2023-04-08T23:57:51;33.57;;;17.83;;
